createdAt,value
2023-09-26T00:00:22.048Z,100981.52
2023-09-26T00:03:10.525Z,100984.23
2023-09-26T00:05:38.649Z,100987.15
2023-09-26T00:08:06.819Z,100986.25
2023-09-26T00:10:34.621Z,100985.14
2023-09-26T00:13:02.533Z,100987.41
2023-09-26T00:15:30.416Z,100985.12
2023-09-26T00:17:58.756Z,100982.30
2023-09-26T00:20:32.095Z,100979.95
2023-09-26T00:23:00.063Z,100978.57
2023-09-26T00:25:28.534Z,100975.95
2023-09-26T00:27:56.538Z,100977.71
2023-09-26T00:30:27.279Z,100972.29
2023-09-26T00:32:55.169Z,100976.61
2023-09-26T00:35:23.130Z,100971.77
2023-09-26T00:37:52.454Z,100973.16
2023-09-26T00:40:24.264Z,100975.96
2023-09-26T00:42:52.706Z,100973.40
2023-09-26T00:45:20.955Z,100971.30
2023-09-26T00:47:49.943Z,100970.90
2023-09-26T00:50:21.294Z,100970.31
2023-09-26T00:52:52.400Z,100970.80
2023-09-26T00:55:23.247Z,100970.79
2023-09-26T00:57:51.764Z,100968.69
2023-09-26T01:00:21.729Z,100969.79
2023-09-26T01:02:50.018Z,100971.04
2023-09-26T01:05:18.299Z,100971.52
2023-09-26T01:07:47.630Z,100973.98
2023-09-26T01:10:15.608Z,100973.00
2023-09-26T01:12:44.008Z,100971.65
2023-09-26T01:15:12.059Z,100972.94
2023-09-26T01:17:40.510Z,100973.94
2023-09-26T01:20:14.015Z,100970.61
2023-09-26T01:22:45.767Z,100967.02
2023-09-26T01:25:16.465Z,100968.38
2023-09-26T01:27:45.078Z,100970.27
2023-09-26T01:30:14.052Z,100970.38
2023-09-26T01:32:42.465Z,100966.73
2023-09-26T01:35:10.671Z,100969.59
2023-09-26T01:37:38.835Z,100967.44
2023-09-26T01:40:10.353Z,100969.16
2023-09-26T01:42:39.461Z,100971.20
2023-09-26T01:45:08.307Z,100970.56
2023-09-26T01:47:49.992Z,100969.83
2023-09-26T01:50:19.880Z,100969.73
2023-09-26T01:52:48.199Z,100968.38
2023-09-26T01:55:21.365Z,100969.63
2023-09-26T01:57:50.788Z,100966.52
2023-09-26T02:00:20.840Z,100967.02
2023-09-26T02:02:50.663Z,100966.47
2023-09-26T02:05:22.488Z,100964.80
2023-09-26T02:07:51.308Z,100970.07
2023-09-26T02:10:19.639Z,100968.42
2023-09-26T02:12:52.592Z,100968.56
2023-09-26T02:15:20.816Z,100974.21
2023-09-26T02:17:49.047Z,100976.62
2023-09-26T02:20:18.873Z,100971.17
2023-09-26T02:22:49.462Z,100971.34
2023-09-26T02:25:22.102Z,100972.02
2023-09-26T02:27:51.429Z,100973.33
2023-09-26T02:30:22.166Z,100978.20
2023-09-26T02:32:50.485Z,100975.31
2023-09-26T02:35:21.650Z,100972.50
2023-09-26T02:37:50.205Z,100975.47
2023-09-26T02:40:18.735Z,100976.84
2023-09-26T02:42:47.447Z,100979.37
2023-09-26T02:45:15.906Z,100980.73
2023-09-26T02:47:44.878Z,100983.16
2023-09-26T02:50:14.118Z,100986.42
2023-09-26T02:52:44.421Z,100985.23
2023-09-26T02:55:12.770Z,100985.77
2023-09-26T02:57:41.027Z,100982.60
2023-09-26T03:00:19.265Z,100980.02
2023-09-26T03:02:49.304Z,100981.27
2023-09-26T03:05:18.873Z,100976.42
2023-09-26T03:07:49.566Z,100976.72
2023-09-26T03:10:17.681Z,100978.47
2023-09-26T03:12:47.471Z,100981.67
2023-09-26T03:15:16.001Z,100983.64
2023-09-26T03:17:44.494Z,100987.85
2023-09-26T03:20:16.466Z,100987.85
2023-09-26T03:22:45.071Z,100987.48
2023-09-26T03:25:13.378Z,100986.94
2023-09-26T03:27:42.954Z,100987.65
2023-09-26T03:30:11.466Z,100989.52
2023-09-26T03:32:39.623Z,100989.85
2023-09-26T03:35:10.392Z,100987.38
2023-09-26T03:37:38.800Z,100993.84
2023-09-26T03:40:07.464Z,100996.26
2023-09-26T03:42:35.366Z,100996.66
2023-09-26T03:45:03.721Z,100996.14
2023-09-26T03:47:31.803Z,100994.56
2023-09-26T03:50:00.029Z,100995.07
2023-09-26T03:52:29.231Z,100996.38
2023-09-26T03:54:57.334Z,100994.04
2023-09-26T03:57:25.191Z,100992.36
2023-09-26T03:59:53.102Z,100987.87
2023-09-26T04:02:21.218Z,100987.67
2023-09-26T04:04:49.320Z,100989.15
2023-09-26T04:07:17.615Z,100989.77
2023-09-26T04:09:45.605Z,100990.38
2023-09-26T04:12:13.655Z,100988.30
2023-09-26T04:14:41.557Z,100990.41
2023-09-26T04:17:09.449Z,100988.27
2023-09-26T04:19:37.426Z,100988.01
2023-09-26T04:22:06.004Z,100989.60
2023-09-26T04:24:34.230Z,100995.88
2023-09-26T04:27:02.068Z,100995.23
2023-09-26T04:29:30.049Z,100997.83
2023-09-26T04:31:58.301Z,100995.79
2023-09-26T04:34:29.159Z,100997.42
2023-09-26T04:36:57.568Z,100998.40
2023-09-26T04:39:26.259Z,100995.84
2023-09-26T04:41:54.132Z,100995.84
2023-09-26T04:44:22.184Z,100995.93
2023-09-26T04:46:50.403Z,100997.48
2023-09-26T04:49:18.445Z,100994.73
2023-09-26T04:51:46.484Z,101000.02
2023-09-26T04:54:14.514Z,101004.41
2023-09-26T04:56:42.411Z,101005.05
2023-09-26T04:59:10.651Z,101004.10
2023-09-26T05:01:38.867Z,101006.36
2023-09-26T05:04:06.895Z,101005.61
2023-09-26T05:06:34.808Z,101005.19
2023-09-26T05:09:02.734Z,101003.05
2023-09-26T05:11:30.676Z,101004.98
2023-09-26T05:14:00.305Z,101003.33
2023-09-26T05:16:28.323Z,101005.06
2023-09-26T05:18:56.988Z,101005.77
2023-09-26T05:21:25.117Z,101009.64
2023-09-26T05:23:53.410Z,101008.83
2023-09-26T05:26:21.422Z,101012.14
2023-09-26T05:28:49.328Z,101013.02
2023-09-26T05:31:19.104Z,101012.95
2023-09-26T05:33:47.007Z,101012.62
2023-09-26T05:36:14.917Z,101012.95
2023-09-26T05:38:42.934Z,101012.45
2023-09-26T05:41:12.845Z,101015.16
2023-09-26T05:43:41.087Z,101018.06
2023-09-26T05:46:09.208Z,101014.60
2023-09-26T05:48:38.202Z,101015.15
2023-09-26T05:51:06.196Z,101013.77
2023-09-26T05:53:34.698Z,101015.05
2023-09-26T05:56:03.099Z,101017.77
2023-09-26T05:58:31.191Z,101015.69
2023-09-26T06:01:07.563Z,101013.93
2023-09-26T06:03:35.778Z,101014.16
2023-09-26T06:06:05.139Z,101015.20
2023-09-26T06:08:34.924Z,101017.86
2023-09-26T06:11:05.855Z,101019.74
2023-09-26T06:13:33.764Z,101017.58
2023-09-26T06:16:06.149Z,101019.67
2023-09-26T06:18:34.270Z,101019.55
2023-09-26T06:21:06.009Z,101019.86
2023-09-26T06:23:34.097Z,101024.41
2023-09-26T06:26:02.544Z,101026.20
2023-09-26T06:28:31.284Z,101028.01
2023-09-26T06:31:09.839Z,101029.05
2023-09-26T06:33:38.373Z,101023.37
2023-09-26T06:36:19.058Z,101017.77
2023-09-26T06:38:46.945Z,101018.49
2023-09-26T06:41:15.348Z,101018.89
2023-09-26T06:43:43.379Z,101015.48
2023-09-26T06:46:11.313Z,101019.75
2023-09-26T06:48:45.757Z,101020.61
2023-09-26T06:51:13.693Z,101018.85
2023-09-26T06:53:42.043Z,101020.88
2023-09-26T06:56:09.916Z,101023.61
2023-09-26T06:58:38.362Z,101019.95
2023-09-26T07:01:16.168Z,101023.14
2023-09-26T07:03:44.327Z,101025.81
2023-09-26T07:06:14.670Z,101022.17
2023-09-26T07:08:44.538Z,101025.70
2023-09-26T07:11:12.738Z,101028.88
2023-09-26T07:16:11.605Z,101033.40
2023-09-26T07:18:39.649Z,101035.52
2023-09-26T07:21:08.119Z,101033.89
2023-09-26T07:23:37.459Z,101034.59
2023-09-26T07:26:16.610Z,101031.04
2023-09-26T07:28:46.116Z,101029.42
2023-09-26T07:31:16.297Z,101034.83
2023-09-26T07:33:45.808Z,101037.21
2023-09-26T07:36:14.419Z,101037.10
2023-09-26T07:38:42.521Z,101033.08
2023-09-26T07:41:10.828Z,101038.81
2023-09-26T07:43:39.015Z,101040.85
2023-09-26T07:46:08.922Z,101037.37
2023-09-26T07:48:39.235Z,101040.84
2023-09-26T07:51:08.271Z,101038.67
2023-09-26T07:53:37.063Z,101034.21
2023-09-26T07:56:05.203Z,101034.89
2023-09-26T07:58:33.302Z,101034.09
2023-09-26T08:01:07.411Z,101032.75
2023-09-26T08:03:36.024Z,101035.50
2023-09-26T08:06:05.748Z,101037.80
2023-09-26T08:08:33.971Z,101035.53
2023-09-26T08:11:09.886Z,101036.27
2023-09-26T08:13:40.334Z,101035.48
2023-09-26T08:16:09.183Z,101033.18
2023-09-26T08:18:37.681Z,101034.55
2023-09-26T08:21:06.441Z,101033.48
2023-09-26T08:23:34.822Z,101034.75
2023-09-26T08:26:07.724Z,101033.20
2023-09-26T08:28:36.670Z,101031.92
2023-09-26T08:31:07.115Z,101033.91
2023-09-26T08:33:35.743Z,101031.20
2023-09-26T08:36:13.091Z,101029.39
2023-09-26T08:38:41.035Z,101029.52
2023-09-26T08:41:09.757Z,101028.27
2023-09-26T08:43:38.084Z,101024.44
2023-09-26T08:46:07.178Z,101020.06
2023-09-26T08:48:35.767Z,101021.83
2023-09-26T08:51:04.737Z,101017.65
2023-09-26T08:53:32.900Z,101018.22
2023-09-26T08:56:01.076Z,101018.46
2023-09-26T08:58:30.208Z,101015.94
2023-09-26T09:00:58.288Z,101012.26
2023-09-26T09:03:26.530Z,101011.30
2023-09-26T09:05:54.647Z,101008.04
2023-09-26T09:08:23.436Z,101012.63
2023-09-26T09:10:53.275Z,101011.88
2023-09-26T09:13:32.984Z,101011.48
2023-09-26T09:16:10.550Z,101010.95
2023-09-26T09:18:43.581Z,101011.29
2023-09-26T09:21:22.482Z,101005.05
2023-09-26T09:23:52.056Z,101004.13
2023-09-26T09:26:23.034Z,100998.17
2023-09-26T09:28:56.894Z,100995.11
2023-09-26T09:31:24.810Z,100993.14
2023-09-26T09:33:58.763Z,100992.66
2023-09-26T09:36:27.137Z,100989.23
2023-09-26T09:38:56.444Z,100982.50
2023-09-26T09:41:24.541Z,100981.16
2023-09-26T09:43:52.719Z,100976.67
2023-09-26T09:46:24.412Z,100979.81
2023-09-26T09:48:57.200Z,100977.41
2023-09-26T09:51:27.517Z,100975.19
2023-09-26T09:53:56.103Z,100973.80
2023-09-26T09:56:27.254Z,100970.23
2023-09-26T09:59:03.387Z,100966.80
2023-09-26T10:01:32.138Z,100963.75
2023-09-26T10:04:01.072Z,100963.14
2023-09-26T10:06:30.639Z,100957.91
2023-09-26T10:09:00.589Z,100951.25
2023-09-26T10:11:30.024Z,100944.61
2023-09-26T10:13:59.572Z,100943.16
2023-09-26T10:16:27.680Z,100943.48
2023-09-26T10:18:56.306Z,100943.09
2023-09-26T10:21:28.708Z,100937.85
2023-09-26T10:24:14.637Z,100931.84
2023-09-26T10:26:50.304Z,100930.61
2023-09-26T10:29:20.862Z,100925.98
2023-09-26T10:31:55.830Z,100921.90
2023-09-26T10:37:33.992Z,100921.80
2023-09-26T10:40:02.075Z,100916.84
2023-09-26T10:45:01.290Z,100916.23
2023-09-26T10:47:29.200Z,100915.05
2023-09-26T10:50:01.636Z,100911.88
2023-09-26T10:58:09.084Z,100904.39
2023-09-26T11:00:37.118Z,100906.10
2023-09-26T11:03:06.478Z,100900.63
2023-09-26T11:05:35.108Z,100900.52
2023-09-26T11:08:04.706Z,100899.23
2023-09-26T11:10:32.858Z,100899.81
2023-09-26T11:13:00.865Z,100899.98
2023-09-26T11:15:28.787Z,100896.85
2023-09-26T11:17:56.736Z,100900.23
2023-09-26T11:20:27.687Z,100898.17
2023-09-26T11:22:55.597Z,100890.63
2023-09-26T11:25:23.658Z,100888.90
2023-09-26T11:27:52.012Z,100890.27
2023-09-26T11:30:21.553Z,100891.55
2023-09-26T11:32:56.862Z,100889.35
2023-09-26T11:35:26.982Z,100886.67
2023-09-26T11:37:55.810Z,100884.44
2023-09-26T11:40:25.951Z,100881.01
2023-09-26T11:42:56.999Z,100883.52
2023-09-26T11:45:27.401Z,100885.30
2023-09-26T11:47:58.072Z,100881.89
2023-09-26T11:50:29.138Z,100874.39
2023-09-26T11:53:03.633Z,100874.77
2023-09-26T11:55:31.993Z,100876.42
2023-09-26T11:58:00.513Z,100874.71
2023-09-26T12:00:30.224Z,100871.38
2023-09-26T12:02:59.098Z,100868.73
2023-09-26T12:05:27.550Z,100867.76
2023-09-26T12:07:55.502Z,100865.50
2023-09-26T12:10:23.627Z,100863.95
2023-09-26T12:12:51.867Z,100864.46
2023-09-26T12:15:23.301Z,100857.61
2023-09-26T12:17:53.180Z,100858.10
2023-09-26T12:20:23.130Z,100855.36
2023-09-26T12:22:54.489Z,100856.39
2023-09-26T12:25:24.778Z,100858.71
2023-09-26T12:27:54.040Z,100858.88
2023-09-26T12:30:22.190Z,100851.64
2023-09-26T12:32:50.959Z,100853.41
2023-09-26T12:35:19.924Z,100850.05
2023-09-26T12:37:49.002Z,100848.23
2023-09-26T12:40:18.022Z,100841.77
2023-09-26T12:42:46.132Z,100844.71
2023-09-26T12:45:14.392Z,100846.32
2023-09-26T12:47:42.339Z,100844.37
2023-09-26T12:50:11.902Z,100843.46
2023-09-26T12:52:41.625Z,100844.67
2023-09-26T12:55:11.407Z,100845.35
2023-09-26T12:57:40.081Z,100844.81
2023-09-26T13:00:12.448Z,100840.80
2023-09-26T13:02:41.823Z,100839.34
2023-09-26T13:05:10.408Z,100839.85
2023-09-26T13:07:38.925Z,100839.18
2023-09-26T13:10:08.257Z,100841.29
2023-09-26T13:12:37.304Z,100838.09
2023-09-26T13:15:06.559Z,100835.10
2023-09-26T13:17:34.663Z,100831.17
2023-09-26T13:20:02.740Z,100835.11
2023-09-26T13:22:30.688Z,100834.80
2023-09-26T13:24:58.779Z,100835.31
2023-09-26T13:27:26.853Z,100836.67
2023-09-26T13:29:55.216Z,100832.48
2023-09-26T13:32:23.220Z,100830.95
2023-09-26T13:34:51.361Z,100829.61
2023-09-26T13:37:19.261Z,100828.66
2023-09-26T13:39:47.262Z,100826.93
2023-09-26T13:42:15.062Z,100823.77
2023-09-26T13:44:43.089Z,100830.98
2023-09-26T13:47:11.118Z,100831.55
2023-09-26T13:49:39.999Z,100832.06
2023-09-26T13:52:08.075Z,100830.41
2023-09-26T13:54:36.210Z,100828.21
2023-09-26T13:57:04.249Z,100828.82
2023-09-26T13:59:32.279Z,100827.74
2023-09-26T14:02:00.260Z,100828.31
2023-09-26T14:04:28.509Z,100828.36
2023-09-26T14:07:01.012Z,100826.90
2023-09-26T14:09:29.004Z,100825.86
2023-09-26T14:11:57.267Z,100824.84
2023-09-26T14:14:25.626Z,100822.52
2023-09-26T14:16:53.674Z,100821.23
2023-09-26T14:19:21.857Z,100818.34
2023-09-26T14:21:49.723Z,100813.31
2023-09-26T14:24:18.533Z,100814.38
2023-09-26T14:26:46.752Z,100813.77
2023-09-26T14:29:14.786Z,100812.19
2023-09-26T14:31:42.574Z,100814.29
2023-09-26T14:34:10.701Z,100814.88
2023-09-26T14:36:39.251Z,100813.33
2023-09-26T14:39:07.724Z,100813.77
2023-09-26T14:41:35.756Z,100809.68
2023-09-26T14:44:03.800Z,100810.56
2023-09-26T14:46:32.286Z,100806.35
2023-09-26T14:49:00.260Z,100806.94
2023-09-26T14:51:29.157Z,100806.75
2023-09-26T14:53:57.128Z,100807.86
2023-09-26T14:56:25.039Z,100807.85
2023-09-26T14:58:53.024Z,100805.93
2023-09-26T15:01:21.053Z,100804.19
2023-09-26T15:03:49.230Z,100804.63
2023-09-26T15:06:17.392Z,100803.85
2023-09-26T15:08:45.557Z,100806.20
2023-09-26T15:11:13.544Z,100800.78
2023-09-26T15:13:41.390Z,100799.73
2023-09-26T15:16:10.004Z,100801.77
2023-09-26T15:18:38.021Z,100799.52
2023-09-26T15:21:05.795Z,100800.33
2023-09-26T15:23:33.864Z,100800.05
2023-09-26T15:26:02.079Z,100801.52
2023-09-26T15:28:30.080Z,100805.08
2023-09-26T15:30:58.303Z,100806.66
2023-09-26T15:33:26.217Z,100805.61
2023-09-26T15:35:54.434Z,100802.92
2023-09-26T15:38:23.635Z,100802.41
2023-09-26T15:41:08.073Z,100806.44
2023-09-26T15:43:37.968Z,100809.36
2023-09-26T15:46:06.940Z,100811.48
2023-09-26T15:48:35.680Z,100810.87
2023-09-26T15:51:11.475Z,100812.27
2023-09-26T15:53:44.748Z,100810.73
2023-09-26T15:56:13.506Z,100808.35
2023-09-26T15:58:47.663Z,100808.53
2023-09-26T16:01:17.895Z,100806.48
2023-09-26T16:03:48.053Z,100804.84
2023-09-26T16:06:16.241Z,100808.79
2023-09-26T16:08:47.104Z,100806.78
2023-09-26T16:11:15.351Z,100805.14
2023-09-26T16:13:45.194Z,100806.60
2023-09-26T16:16:13.879Z,100809.34
2023-09-26T16:18:42.073Z,100808.77
2023-09-26T16:21:10.088Z,100809.84
2023-09-26T16:23:38.143Z,100811.06
2023-09-26T16:26:07.391Z,100812.80
2023-09-26T16:28:37.574Z,100814.94
2023-09-26T16:31:05.786Z,100813.67
2023-09-26T16:33:35.560Z,100819.34
2023-09-26T16:36:17.406Z,100818.67
2023-09-26T16:38:50.602Z,100821.09
2023-09-26T16:41:18.685Z,100822.95
2023-09-26T16:43:47.345Z,100824.52
2023-09-26T16:46:15.619Z,100829.08
2023-09-26T16:48:47.238Z,100836.04
2023-09-26T16:51:15.931Z,100838.73
2023-09-26T16:53:52.509Z,100841.09
2023-09-26T16:56:22.424Z,100839.42
2023-09-26T16:58:53.254Z,100843.38
2023-09-26T17:01:21.725Z,100844.20
2023-09-26T17:03:50.451Z,100845.59
2023-09-26T17:06:18.489Z,100848.45
2023-09-26T17:08:48.394Z,100849.31
2023-09-26T17:11:16.402Z,100850.60
2023-09-26T17:13:44.280Z,100851.54
2023-09-26T17:16:12.206Z,100855.13
2023-09-26T17:18:40.447Z,100854.75
2023-09-26T17:21:11.195Z,100856.02
2023-09-26T17:23:39.087Z,100857.61
2023-09-26T17:26:07.242Z,100857.86
2023-09-26T17:28:35.347Z,100859.77
2023-09-26T17:31:03.470Z,100862.84
2023-09-26T17:33:31.642Z,100860.68
2023-09-26T17:36:05.149Z,100863.75
2023-09-26T17:38:35.470Z,100866.88
2023-09-26T17:41:03.801Z,100871.75
2023-09-26T17:43:32.018Z,100876.52
2023-09-26T17:46:02.913Z,100872.35
2023-09-26T17:48:32.226Z,100870.33
2023-09-26T17:51:00.734Z,100872.80
2023-09-26T17:53:28.791Z,100875.71
2023-09-26T17:55:56.687Z,100878.20
2023-09-26T17:58:24.574Z,100876.84
2023-09-26T18:00:52.571Z,100876.38
2023-09-26T18:03:24.112Z,100874.39
2023-09-26T18:05:52.239Z,100875.10
2023-09-26T18:08:20.251Z,100877.48
2023-09-26T18:10:48.809Z,100879.23
2023-09-26T18:13:16.827Z,100879.78
2023-09-26T18:15:44.712Z,100883.33
2023-09-26T18:18:12.806Z,100887.90
2023-09-26T18:20:40.607Z,100892.48
2023-09-26T18:23:08.596Z,100893.25
2023-09-26T18:25:36.391Z,100896.10
2023-09-26T18:28:04.658Z,100898.20
2023-09-26T18:30:32.543Z,100896.10
2023-09-26T18:33:00.484Z,100900.23
2023-09-26T18:35:28.456Z,100904.46
2023-09-26T18:37:57.489Z,100906.23
2023-09-26T18:40:26.682Z,100911.14
2023-09-26T18:42:54.636Z,100912.55
2023-09-26T18:45:22.620Z,100912.73
2023-09-26T18:47:50.640Z,100914.64
2023-09-26T18:50:18.717Z,100916.94
2023-09-26T18:52:48.379Z,100918.59
2023-09-26T18:55:16.373Z,100918.36
2023-09-26T18:57:44.144Z,100920.16
2023-09-26T19:00:12.855Z,100920.65
2023-09-26T19:02:41.133Z,100923.67
2023-09-26T19:05:10.176Z,100926.38
2023-09-26T19:07:41.172Z,100926.64
2023-09-26T19:10:09.961Z,100929.16
2023-09-26T19:12:39.062Z,100928.21
2023-09-26T19:15:07.847Z,100927.21
2023-09-26T19:17:35.833Z,100927.76
2023-09-26T19:20:05.103Z,100933.54
2023-09-26T19:22:33.133Z,100935.62
2023-09-26T19:25:04.247Z,100936.02
2023-09-26T19:27:32.179Z,100935.69
2023-09-26T19:30:01.051Z,100938.61
2023-09-26T19:32:28.927Z,100942.48
2023-09-26T19:34:58.795Z,100942.67
2023-09-26T19:37:26.715Z,100941.77
2023-09-26T19:39:54.703Z,100944.02
2023-09-26T19:42:22.722Z,100945.05
2023-09-26T19:44:51.993Z,100944.29
2023-09-26T19:47:23.807Z,100948.92
2023-09-26T19:49:52.067Z,100944.49
2023-09-26T19:52:20.158Z,100944.23
2023-09-26T19:54:48.241Z,100945.80
2023-09-26T19:57:16.144Z,100947.10
2023-09-26T19:59:44.754Z,100948.61
2023-09-26T20:02:12.839Z,100948.27
2023-09-26T20:04:41.414Z,100949.32
2023-09-26T20:07:10.175Z,100946.88
2023-09-26T20:09:38.077Z,100947.76
2023-09-26T20:12:06.350Z,100948.96
2023-09-26T20:14:34.212Z,100946.71
2023-09-26T20:17:02.617Z,100946.83
2023-09-26T20:19:30.565Z,100946.73
2023-09-26T20:21:58.311Z,100945.44
2023-09-26T20:24:26.208Z,100946.35
2023-09-26T20:26:54.111Z,100949.30
2023-09-26T20:29:22.376Z,100951.59
2023-09-26T20:31:50.396Z,100950.77
2023-09-26T20:34:18.254Z,100950.91
2023-09-26T20:36:46.147Z,100951.18
2023-09-26T20:39:17.680Z,100954.09
2023-09-26T20:41:45.968Z,100953.96
2023-09-26T20:44:14.314Z,100952.70
2023-09-26T20:46:42.400Z,100953.87
2023-09-26T20:49:11.416Z,100953.30
2023-09-26T20:51:39.488Z,100958.77
2023-09-26T20:54:07.258Z,100959.59
2023-09-26T20:56:35.102Z,100960.00
2023-09-26T20:59:03.078Z,100961.11
2023-09-26T21:01:31.239Z,100960.74
2023-09-26T21:03:59.834Z,100959.78
2023-09-26T21:06:27.955Z,100957.67
2023-09-26T21:08:55.961Z,100963.54
2023-09-26T21:11:24.103Z,100963.16
2023-09-26T21:13:52.043Z,100962.57
2023-09-26T21:16:20.308Z,100960.58
2023-09-26T21:18:49.804Z,100960.10
2023-09-26T21:21:23.214Z,100962.31
2023-09-26T21:23:53.289Z,100963.81
2023-09-26T21:26:22.460Z,100961.42
2023-09-26T21:28:51.290Z,100964.25
2023-09-26T21:31:19.782Z,100964.95
2023-09-26T21:33:48.018Z,100964.84
2023-09-26T21:36:15.785Z,100965.84
2023-09-26T21:38:44.058Z,100971.94
2023-09-26T21:41:12.046Z,100972.69
2023-09-26T21:43:39.980Z,100973.75
2023-09-26T21:46:07.968Z,100972.11
2023-09-26T21:48:35.886Z,100970.33
2023-09-26T21:51:04.350Z,100973.89
2023-09-26T21:53:32.538Z,100971.70
2023-09-26T21:56:00.413Z,100968.03
2023-09-26T21:58:28.294Z,100963.04
2023-09-26T22:00:56.154Z,100967.27
2023-09-26T22:03:24.124Z,100965.73
2023-09-26T22:05:52.780Z,100967.11
2023-09-26T22:08:20.785Z,100971.97
2023-09-26T22:10:48.629Z,100969.68
2023-09-26T22:13:16.617Z,100971.27
2023-09-26T22:15:44.724Z,100972.52
2023-09-26T22:18:12.629Z,100973.55
2023-09-26T22:20:40.970Z,100976.20
2023-09-26T22:23:09.084Z,100976.97
2023-09-26T22:25:37.053Z,100978.66
2023-09-26T22:28:05.398Z,100977.98
2023-09-26T22:30:34.257Z,100977.92
2023-09-26T22:33:02.656Z,100980.00
2023-09-26T22:35:31.473Z,100982.44
2023-09-26T22:37:59.455Z,100984.11
2023-09-26T22:40:30.355Z,100982.17
2023-09-26T22:43:05.169Z,100983.48
2023-09-26T22:45:33.247Z,100983.31
2023-09-26T22:48:01.362Z,100982.54
2023-09-26T22:50:29.243Z,100982.54
2023-09-26T22:52:57.368Z,100983.55
2023-09-26T22:55:25.393Z,100987.32
2023-09-26T22:57:55.313Z,100989.95
2023-09-26T23:00:23.463Z,100989.88
2023-09-26T23:02:51.657Z,100991.39
2023-09-26T23:05:19.746Z,100994.56
2023-09-26T23:07:47.813Z,100993.27
2023-09-26T23:10:15.864Z,100994.77
2023-09-26T23:12:43.706Z,100996.15
2023-09-26T23:15:11.635Z,100995.56
2023-09-26T23:17:39.585Z,100997.64
2023-09-26T23:20:11.532Z,100997.05
2023-09-26T23:22:40.347Z,100994.64
2023-09-26T23:25:11.003Z,100993.29
2023-09-26T23:27:40.014Z,100992.73
2023-09-26T23:30:10.730Z,100993.29
2023-09-26T23:32:42.958Z,100993.75
2023-09-26T23:35:19.739Z,100995.44
2023-09-26T23:37:49.817Z,100989.38
2023-09-26T23:40:20.690Z,100990.71
2023-09-26T23:42:48.803Z,100992.14
2023-09-26T23:45:16.679Z,100989.55
2023-09-26T23:47:44.808Z,100988.03
2023-09-26T23:50:16.412Z,100989.70
2023-09-26T23:52:45.361Z,100986.86
2023-09-26T23:55:14.530Z,100985.73
2023-09-26T23:57:42.662Z,100983.17
